createdAt,value
2023-01-19T00:00:53.858Z,3.97
2023-01-19T00:03:21.759Z,4.50
2023-01-19T00:05:49.208Z,4.30
2023-01-19T00:08:16.267Z,5.07
2023-01-19T00:10:48.549Z,4.15
2023-01-19T00:13:16.192Z,3.67
2023-01-19T00:15:43.508Z,3.30
2023-01-19T00:18:11.176Z,3.45
2023-01-19T00:20:39.799Z,4.18
2023-01-19T00:23:08.371Z,4.10
2023-01-19T00:25:36.023Z,4.60
2023-01-19T00:28:03.036Z,3.67
2023-01-19T00:30:30.102Z,5.32
2023-01-19T00:32:57.172Z,3.63
2023-01-19T00:35:24.270Z,4.15
2023-01-19T00:37:51.558Z,4.97
2023-01-19T00:40:18.619Z,4.28
2023-01-19T00:42:48.333Z,4.40
2023-01-19T00:45:18.787Z,3.78
2023-01-19T00:47:46.884Z,3.53
2023-01-19T00:50:16.866Z,4.45
2023-01-19T00:52:45.173Z,3.85
2023-01-19T00:55:14.245Z,3.88
2023-01-19T00:57:41.734Z,3.50
2023-01-19T01:00:14.512Z,5.60
2023-01-19T01:02:43.114Z,4.00
2023-01-19T01:05:11.412Z,3.88
2023-01-19T01:07:42.921Z,3.85
2023-01-19T01:10:13.318Z,3.78
2023-01-19T01:12:41.415Z,4.63
2023-01-19T01:15:22.959Z,4.47
2023-01-19T01:17:53.189Z,4.82
2023-01-19T01:20:27.215Z,4.10
2023-01-19T01:22:55.437Z,4.82
2023-01-19T01:25:23.723Z,4.88
2023-01-19T01:27:51.372Z,3.30
2023-01-19T01:30:19.522Z,3.97
2023-01-19T01:32:46.595Z,3.53
2023-01-19T01:35:14.718Z,3.20
2023-01-19T01:37:42.984Z,3.47
2023-01-19T01:40:13.476Z,3.72
2023-01-19T01:42:40.793Z,4.28
2023-01-19T01:45:15.384Z,4.45
2023-01-19T01:47:48.877Z,4.00
2023-01-19T01:50:23.071Z,5.55
2023-01-19T01:53:07.651Z,4.53
2023-01-19T01:55:43.128Z,4.05
2023-01-19T01:58:11.546Z,4.32
2023-01-19T02:00:59.218Z,4.40
2023-01-19T02:03:28.281Z,3.42
2023-01-19T02:05:59.815Z,3.90
2023-01-19T02:09:02.685Z,3.85
2023-01-19T02:11:49.225Z,4.25
2023-01-19T02:14:16.311Z,4.47
2023-01-19T02:16:43.406Z,3.83
2023-01-19T02:19:16.726Z,3.60
2023-01-19T02:21:49.577Z,3.88
2023-01-19T02:24:17.553Z,3.75
2023-01-19T02:26:47.212Z,5.22
2023-01-19T02:29:18.155Z,3.40
2023-01-19T02:31:45.829Z,4.68
2023-01-19T02:34:18.025Z,3.20
2023-01-19T02:37:00.272Z,4.40
2023-01-19T02:39:41.954Z,4.03
2023-01-19T02:42:15.233Z,4.35
2023-01-19T02:44:45.925Z,6.13
2023-01-19T02:47:14.062Z,6.20
2023-01-19T02:49:41.059Z,6.15
2023-01-19T02:52:16.057Z,5.13
2023-01-19T02:54:59.041Z,3.88
2023-01-19T02:57:39.376Z,4.50
2023-01-19T03:00:33.015Z,3.83
2023-01-19T03:03:24.525Z,6.38
2023-01-19T03:05:57.244Z,4.70
2023-01-19T03:08:39.592Z,4.47
2023-01-19T03:11:12.065Z,4.07
2023-01-19T03:13:47.744Z,4.68
2023-01-19T03:16:45.531Z,4.80
2023-01-19T03:19:23.393Z,3.53
2023-01-19T03:22:04.069Z,4.88
2023-01-19T03:24:36.912Z,6.13
2023-01-19T03:27:13.227Z,4.22
2023-01-19T03:29:45.922Z,4.93
2023-01-19T03:32:18.075Z,4.07
2023-01-19T03:34:48.056Z,3.75
2023-01-19T03:37:18.350Z,4.97
2023-01-19T03:39:45.249Z,6.53
2023-01-19T03:42:15.939Z,4.93
2023-01-19T03:44:45.742Z,6.13
2023-01-19T03:47:15.069Z,5.28
2023-01-19T03:49:45.336Z,4.60
2023-01-19T03:52:13.002Z,4.60
2023-01-19T03:54:41.167Z,4.95
2023-01-19T03:57:08.469Z,5.40
2023-01-19T03:59:35.423Z,4.07
2023-01-19T04:02:02.442Z,5.55
2023-01-19T04:04:29.414Z,4.80
2023-01-19T04:06:56.302Z,5.82
2023-01-19T04:09:23.301Z,6.05
2023-01-19T04:11:50.183Z,4.80
2023-01-19T04:14:17.149Z,5.10
2023-01-19T04:16:44.064Z,5.30
2023-01-19T04:19:11.379Z,4.90
2023-01-19T04:21:38.269Z,7.85
2023-01-19T04:24:05.423Z,5.30
2023-01-19T04:26:32.271Z,4.65
2023-01-19T04:28:59.225Z,5.55
2023-01-19T04:31:26.236Z,5.65
2023-01-19T04:33:53.164Z,4.68
2023-01-19T04:36:20.014Z,6.18
2023-01-19T04:38:48.718Z,5.20
2023-01-19T04:41:15.605Z,4.53
2023-01-19T04:43:42.488Z,5.60
2023-01-19T04:46:09.392Z,4.95
2023-01-19T04:48:36.514Z,5.10
2023-01-19T04:51:03.673Z,5.97
2023-01-19T04:53:30.531Z,6.47
2023-01-19T04:55:57.458Z,5.97
2023-01-19T04:58:24.325Z,5.10
2023-01-19T05:00:52.384Z,6.00
2023-01-19T05:03:20.302Z,5.85
2023-01-19T05:05:47.294Z,6.22
2023-01-19T05:08:14.250Z,7.13
2023-01-19T05:10:41.150Z,4.75
2023-01-19T05:13:08.070Z,6.78
2023-01-19T05:15:34.969Z,4.85
2023-01-19T05:18:02.014Z,4.97
2023-01-19T05:20:28.914Z,6.35
2023-01-19T05:22:55.810Z,4.97
2023-01-19T05:25:22.716Z,6.03
2023-01-19T05:27:49.568Z,6.22
2023-01-19T05:30:17.131Z,5.35
2023-01-19T05:32:44.352Z,5.07
2023-01-19T05:35:11.333Z,5.45
2023-01-19T05:37:38.242Z,4.68
2023-01-19T05:40:05.804Z,4.47
2023-01-19T05:42:33.036Z,6.20
2023-01-19T05:45:00.142Z,6.55
2023-01-19T05:47:30.540Z,4.72
2023-01-19T05:49:57.888Z,5.72
2023-01-19T05:52:27.606Z,6.93
2023-01-19T05:54:55.325Z,5.50
2023-01-19T05:57:22.980Z,5.72
2023-01-19T05:59:49.958Z,5.85
2023-01-19T06:02:17.243Z,5.47
2023-01-19T06:04:45.042Z,4.65
2023-01-19T06:07:12.041Z,4.30
2023-01-19T06:09:38.909Z,7.07
2023-01-19T06:12:06.372Z,6.10
2023-01-19T06:14:33.255Z,4.82
2023-01-19T06:17:00.112Z,5.28
2023-01-19T06:19:27.057Z,7.32
2023-01-19T06:21:53.895Z,6.43
2023-01-19T06:24:20.812Z,5.80
2023-01-19T06:26:47.716Z,6.53
2023-01-19T06:29:14.837Z,5.97
2023-01-19T06:31:42.070Z,4.75
2023-01-19T06:34:09.466Z,5.45
2023-01-19T06:36:36.917Z,5.68
2023-01-19T06:39:06.075Z,6.80
2023-01-19T06:41:36.066Z,5.85
2023-01-19T06:44:03.390Z,5.75
2023-01-19T06:46:30.552Z,5.90
2023-01-19T06:48:57.646Z,4.82
2023-01-19T06:51:25.560Z,5.03
2023-01-19T06:53:52.493Z,5.88
2023-01-19T06:56:19.368Z,5.80
2023-01-19T06:58:48.506Z,4.88
2023-01-19T07:01:15.580Z,4.88
2023-01-19T07:03:42.566Z,6.15
2023-01-19T07:06:09.599Z,5.95
2023-01-19T07:08:37.639Z,5.57
2023-01-19T07:11:24.433Z,4.88
2023-01-19T07:13:56.949Z,6.85
2023-01-19T07:16:24.073Z,6.05
2023-01-19T07:18:51.168Z,5.38
2023-01-19T07:21:18.208Z,6.70
2023-01-19T07:23:47.873Z,6.63
2023-01-19T07:26:16.743Z,7.80
2023-01-19T07:28:43.618Z,5.47
2023-01-19T07:31:10.519Z,5.00
2023-01-19T07:33:37.506Z,6.78
2023-01-19T07:36:04.505Z,5.72
2023-01-19T07:38:31.680Z,5.60
2023-01-19T07:41:02.684Z,6.28
2023-01-19T07:43:29.690Z,5.63
2023-01-19T07:45:58.239Z,6.25
2023-01-19T07:48:25.559Z,5.32
2023-01-19T07:50:52.543Z,6.95
2023-01-19T07:53:19.576Z,6.15
2023-01-19T07:55:46.439Z,7.53
2023-01-19T07:58:13.290Z,6.60
2023-01-19T08:00:40.219Z,5.88
2023-01-19T08:03:07.067Z,5.30
2023-01-19T08:05:34.163Z,6.32
2023-01-19T08:08:01.176Z,6.88
2023-01-19T08:10:29.139Z,5.43
2023-01-19T08:12:57.843Z,7.10
2023-01-19T08:15:25.220Z,5.13
2023-01-19T08:18:09.851Z,5.70
2023-01-19T08:20:37.300Z,5.72
2023-01-19T08:23:05.561Z,5.85
2023-01-19T08:25:34.475Z,7.35
2023-01-19T08:28:01.929Z,5.70
2023-01-19T08:30:28.860Z,5.03
2023-01-19T08:33:04.036Z,6.93
2023-01-19T08:35:32.423Z,6.68
2023-01-19T08:38:01.704Z,5.70
2023-01-19T08:40:29.951Z,6.80
2023-01-19T08:43:04.963Z,6.72
2023-01-19T08:47:59.542Z,5.82
2023-01-19T08:50:27.812Z,6.72
2023-01-19T08:53:00.028Z,6.25
2023-01-19T08:55:28.302Z,5.35
2023-01-19T08:58:00.708Z,5.07
2023-01-19T09:00:27.837Z,5.97
2023-01-19T09:02:56.680Z,5.00
2023-01-19T09:05:24.314Z,6.32
2023-01-19T09:07:51.946Z,5.85
2023-01-19T09:10:19.415Z,6.68
2023-01-19T09:12:46.673Z,7.53
2023-01-19T09:15:14.175Z,6.50
2023-01-19T09:17:44.053Z,6.00
2023-01-19T09:20:11.344Z,6.82
2023-01-19T09:22:39.784Z,5.32
2023-01-19T09:25:07.723Z,6.10
2023-01-19T09:27:35.093Z,7.82
2023-01-19T09:30:02.815Z,6.30
2023-01-19T09:32:29.758Z,5.38
2023-01-19T09:34:56.915Z,5.20
2023-01-19T09:37:23.902Z,5.75
2023-01-19T09:39:50.892Z,5.43
2023-01-19T09:42:42.624Z,4.68
2023-01-19T09:45:29.438Z,4.68
2023-01-19T09:47:58.843Z,4.70
2023-01-19T09:50:34.486Z,5.28
2023-01-19T09:53:28.180Z,4.63
2023-01-19T09:55:55.156Z,7.25
2023-01-19T09:58:23.157Z,4.78
2023-01-19T10:01:09.131Z,4.78
2023-01-19T10:03:41.408Z,5.22
2023-01-19T10:06:12.004Z,4.60
2023-01-19T10:09:01.093Z,7.03
2023-01-19T10:11:51.299Z,4.97
2023-01-19T10:14:36.833Z,5.10
2023-01-19T10:17:15.812Z,5.13
2023-01-19T10:19:47.882Z,4.75
2023-01-19T10:22:23.178Z,5.32
2023-01-19T10:24:56.949Z,4.85
2023-01-19T10:27:28.959Z,5.40
2023-01-19T10:29:57.743Z,5.15
2023-01-19T10:32:31.514Z,5.97
2023-01-19T10:34:59.977Z,6.43
2023-01-19T10:37:31.903Z,5.65
2023-01-19T10:40:27.351Z,5.30
2023-01-19T10:42:54.422Z,5.10
2023-01-19T10:45:27.382Z,4.50
2023-01-19T10:47:57.890Z,5.05
2023-01-19T10:50:29.723Z,4.40
2023-01-19T10:53:00.236Z,4.13
2023-01-19T10:55:39.927Z,4.13
2023-01-19T10:58:26.557Z,5.88
2023-01-19T11:00:53.943Z,5.05
2023-01-19T11:03:32.314Z,4.43
2023-01-19T11:06:23.880Z,4.45
2023-01-19T11:08:52.505Z,4.13
2023-01-19T11:11:21.054Z,5.30
2023-01-19T11:14:07.483Z,4.18
2023-01-19T11:16:35.537Z,4.07
2023-01-19T11:19:03.660Z,3.92
2023-01-19T11:21:33.097Z,3.42
2023-01-19T11:24:08.810Z,3.30
2023-01-19T11:26:45.162Z,3.88
2023-01-19T11:29:19.301Z,4.10
2023-01-19T11:31:46.314Z,3.87
2023-01-19T11:34:34.273Z,4.57
2023-01-19T11:37:05.598Z,3.97
2023-01-19T11:39:49.294Z,4.85
2023-01-19T11:42:17.044Z,5.35
2023-01-19T11:45:14.725Z,3.88
2023-01-19T11:47:49.426Z,5.45
2023-01-19T11:50:24.575Z,3.97
2023-01-19T11:53:24.347Z,3.58
2023-01-19T11:55:57.000Z,4.72
2023-01-19T11:58:24.784Z,4.25
2023-01-19T12:01:07.975Z,4.22
2023-01-19T12:03:40.927Z,5.38
2023-01-19T12:06:13.139Z,3.47
2023-01-19T12:08:45.877Z,4.10
2023-01-19T12:11:18.894Z,3.60
2023-01-19T12:13:47.076Z,4.13
2023-01-19T12:16:20.805Z,3.08
2023-01-19T12:18:59.477Z,3.30
2023-01-19T12:21:26.346Z,3.53
2023-01-19T12:24:24.372Z,3.78
2023-01-19T12:27:00.597Z,3.20
2023-01-19T12:29:36.171Z,2.92
2023-01-19T12:32:16.795Z,4.20
2023-01-19T12:34:52.167Z,2.88
2023-01-19T12:37:29.009Z,3.58
2023-01-19T12:39:59.046Z,3.30
2023-01-19T12:42:27.153Z,3.40
2023-01-19T12:45:17.135Z,3.60
2023-01-19T12:47:54.522Z,3.65
2023-01-19T12:50:25.870Z,2.70
2023-01-19T12:52:58.559Z,3.88
2023-01-19T12:55:34.864Z,3.30
2023-01-19T12:58:13.730Z,3.65
2023-01-19T13:00:45.677Z,2.83
2023-01-19T13:03:18.448Z,3.38
2023-01-19T13:05:51.351Z,2.75
2023-01-19T13:08:27.386Z,2.60
2023-01-19T13:11:00.532Z,2.70
2023-01-19T13:13:33.817Z,2.88
2023-01-19T13:16:19.293Z,3.63
2023-01-19T13:18:51.131Z,2.78
2023-01-19T13:21:33.667Z,1.92
2023-01-19T13:24:12.364Z,2.50
2023-01-19T13:27:03.601Z,1.92
2023-01-19T13:29:34.011Z,3.33
2023-01-19T13:32:05.246Z,2.55
2023-01-19T13:34:42.445Z,2.10
2023-01-19T13:37:18.424Z,2.00
2023-01-19T13:39:49.071Z,2.67
2023-01-19T13:42:21.975Z,1.83
2023-01-19T13:44:53.715Z,1.98
2023-01-19T13:47:29.482Z,2.05
2023-01-19T13:50:02.227Z,1.90
2023-01-19T13:52:29.818Z,1.90
2023-01-19T13:55:03.499Z,2.25
2023-01-19T13:57:33.495Z,1.90
2023-01-19T14:00:23.627Z,1.63
2023-01-19T14:03:18.643Z,2.03
2023-01-19T14:05:45.696Z,1.77
2023-01-19T14:08:15.459Z,1.77
2023-01-19T14:10:45.984Z,1.55
2023-01-19T14:13:23.389Z,2.53
2023-01-19T14:15:54.142Z,2.00
2023-01-19T14:18:24.854Z,1.70
2023-01-19T14:21:11.963Z,2.35
2023-01-19T14:23:43.107Z,1.63
2023-01-19T14:26:38.022Z,1.75
2023-01-19T14:29:27.175Z,1.55
2023-01-19T14:32:08.002Z,1.92
2023-01-19T14:34:44.431Z,1.40
2023-01-19T14:37:17.312Z,1.67
2023-01-19T14:40:05.786Z,2.03
2023-01-19T14:42:37.770Z,1.98
2023-01-19T14:45:08.837Z,1.83
2023-01-19T14:47:41.603Z,2.38
2023-01-19T14:50:17.741Z,2.03
2023-01-19T14:52:51.728Z,1.55
2023-01-19T14:55:26.010Z,2.13
2023-01-19T14:57:54.346Z,2.17
2023-01-19T15:00:21.824Z,3.35
2023-01-19T15:02:49.019Z,2.25
2023-01-19T15:05:16.327Z,2.33
2023-01-19T15:07:45.865Z,2.40
2023-01-19T15:10:24.022Z,2.30
2023-01-19T15:12:53.355Z,2.03
2023-01-19T15:15:26.974Z,2.00
2023-01-19T15:17:56.135Z,1.95
2023-01-19T15:20:23.935Z,2.50
2023-01-19T15:22:51.034Z,1.92
2023-01-19T15:25:21.086Z,2.00
2023-01-19T15:27:48.931Z,2.25
2023-01-19T15:30:17.645Z,1.73
2023-01-19T15:32:45.047Z,1.65
2023-01-19T15:35:14.643Z,1.65
2023-01-19T15:37:41.780Z,1.50
2023-01-19T15:40:09.955Z,2.20
2023-01-19T15:42:37.535Z,1.98
2023-01-19T15:45:31.590Z,1.70
2023-01-19T15:47:59.624Z,2.00
2023-01-19T15:50:27.388Z,1.88
2023-01-19T15:52:54.380Z,2.10
2023-01-19T15:55:21.447Z,2.33
2023-01-19T15:57:49.245Z,1.95
2023-01-19T16:00:16.644Z,1.92
2023-01-19T16:02:43.609Z,3.50
2023-01-19T16:05:11.131Z,3.95
2023-01-19T16:07:38.482Z,2.00
2023-01-19T16:10:09.645Z,2.20
2023-01-19T16:12:37.050Z,2.60
2023-01-19T16:15:04.717Z,2.05
2023-01-19T16:17:31.829Z,2.58
2023-01-19T16:19:58.752Z,2.40
2023-01-19T16:22:25.610Z,1.50
2023-01-19T16:24:53.296Z,2.28
2023-01-19T16:27:20.138Z,1.55
2023-01-19T16:29:47.930Z,2.35
2023-01-19T16:32:15.649Z,1.98
2023-01-19T16:34:43.925Z,2.30
2023-01-19T16:37:11.561Z,2.00
2023-01-19T16:39:38.524Z,2.15
2023-01-19T16:42:05.549Z,2.55
2023-01-19T16:44:32.437Z,2.70
2023-01-19T16:46:59.397Z,2.28
2023-01-19T16:49:28.488Z,1.88
2023-01-19T16:51:56.288Z,2.13
2023-01-19T16:54:26.085Z,1.92
2023-01-19T16:56:54.599Z,2.53
2023-01-19T16:59:22.489Z,2.10
2023-01-19T17:01:53.313Z,1.80
2023-01-19T17:04:22.124Z,1.98
2023-01-19T17:06:50.033Z,1.90
2023-01-19T17:09:17.334Z,1.58
2023-01-19T17:11:45.156Z,2.08
2023-01-19T17:14:20.544Z,1.80
2023-01-19T17:16:48.389Z,2.55
2023-01-19T17:19:17.856Z,1.92
2023-01-19T17:21:46.451Z,2.00
2023-01-19T17:24:13.338Z,2.13
2023-01-19T17:26:40.360Z,2.08
2023-01-19T17:29:09.751Z,2.05
2023-01-19T17:31:37.428Z,2.45
2023-01-19T17:34:04.698Z,1.65
2023-01-19T17:36:32.884Z,2.22
2023-01-19T17:39:07.185Z,2.13
2023-01-19T17:41:35.434Z,1.60
2023-01-19T17:44:04.503Z,2.00
2023-01-19T17:46:32.054Z,1.95
2023-01-19T17:49:04.582Z,2.15
2023-01-19T17:51:32.794Z,1.83
2023-01-19T17:53:59.744Z,2.30
2023-01-19T17:56:30.318Z,2.97
2023-01-19T17:58:58.280Z,1.80
2023-01-19T18:01:27.820Z,1.77
2023-01-19T18:03:55.522Z,1.55
2023-01-19T18:06:23.239Z,1.75
2023-01-19T18:08:50.620Z,2.08
2023-01-19T18:11:19.941Z,1.70
2023-01-19T18:13:48.485Z,2.05
2023-01-19T18:16:21.486Z,1.85
2023-01-19T18:18:49.941Z,1.70
2023-01-19T18:21:17.385Z,1.90
2023-01-19T18:23:45.256Z,1.60
2023-01-19T18:26:18.511Z,2.10
2023-01-19T18:28:45.984Z,2.20
2023-01-19T18:31:16.242Z,1.77
2023-01-19T18:33:43.488Z,2.33
2023-01-19T18:36:11.225Z,2.75
2023-01-19T18:38:38.928Z,1.58
2023-01-19T18:41:11.299Z,1.60
2023-01-19T18:43:39.047Z,1.60
2023-01-19T18:46:06.612Z,1.70
2023-01-19T18:48:34.075Z,1.48
2023-01-19T18:51:05.234Z,1.95
2023-01-19T18:53:32.302Z,2.08
2023-01-19T18:56:02.031Z,1.98
2023-01-19T18:58:31.607Z,1.30
2023-01-19T19:01:02.219Z,2.40
2023-01-19T19:03:29.493Z,1.80
2023-01-19T19:05:56.658Z,1.67
2023-01-19T19:08:23.736Z,1.83
2023-01-19T19:10:50.624Z,1.90
2023-01-19T19:13:18.135Z,2.13
2023-01-19T19:15:45.164Z,1.52
2023-01-19T19:18:14.026Z,1.83
2023-01-19T19:20:44.440Z,1.65
2023-01-19T19:23:11.859Z,1.58
2023-01-19T19:25:39.194Z,2.50
2023-01-19T19:28:06.704Z,1.10
2023-01-19T19:30:35.820Z,1.88
2023-01-19T19:33:02.761Z,1.25
2023-01-19T19:35:29.712Z,1.38
2023-01-19T19:37:57.984Z,1.50
2023-01-19T19:40:26.514Z,2.10
2023-01-19T19:42:54.039Z,1.67
2023-01-19T19:45:21.053Z,1.85
2023-01-19T19:47:48.091Z,1.65
2023-01-19T19:50:15.442Z,1.25
2023-01-19T19:52:42.853Z,1.95
2023-01-19T19:55:11.000Z,2.10
2023-01-19T19:57:38.219Z,2.22
2023-01-19T20:00:06.431Z,1.60
2023-01-19T20:02:36.920Z,2.25
2023-01-19T20:05:04.752Z,1.65
2023-01-19T20:07:31.830Z,1.88
2023-01-19T20:09:59.042Z,2.45
2023-01-19T20:12:26.215Z,1.77
2023-01-19T20:14:53.094Z,2.00
2023-01-19T20:17:20.884Z,1.63
2023-01-19T20:19:49.123Z,1.98
2023-01-19T20:22:16.382Z,2.05
2023-01-19T20:24:43.508Z,1.70
2023-01-19T20:27:10.851Z,3.33
2023-01-19T20:29:37.846Z,1.70
2023-01-19T20:32:05.003Z,1.88
2023-01-19T20:34:33.749Z,1.67
2023-01-19T20:37:02.296Z,1.92
2023-01-19T20:39:33.253Z,1.95
2023-01-19T20:42:01.042Z,1.90
2023-01-19T20:44:28.168Z,1.70
2023-01-19T20:46:55.940Z,1.77
2023-01-19T20:49:23.397Z,1.70
2023-01-19T20:51:52.233Z,1.90
2023-01-19T20:54:22.861Z,1.60
2023-01-19T20:56:49.855Z,2.13
2023-01-19T20:59:16.947Z,1.50
2023-01-19T21:01:44.911Z,1.50
2023-01-19T21:04:12.716Z,1.63
2023-01-19T21:06:40.408Z,1.60
2023-01-19T21:09:09.049Z,1.73
2023-01-19T21:11:37.689Z,1.60
2023-01-19T21:14:04.966Z,1.67
2023-01-19T21:16:34.105Z,1.67
2023-01-19T21:19:01.115Z,1.40
2023-01-19T21:21:31.192Z,1.67
2023-01-19T21:24:00.954Z,1.90
2023-01-19T21:26:31.679Z,2.13
2023-01-19T21:28:59.445Z,1.38
2023-01-19T21:31:27.929Z,1.88
2023-01-19T21:33:56.410Z,1.45
2023-01-19T21:36:24.833Z,1.63
2023-01-19T21:38:52.582Z,1.77
2023-01-19T21:41:19.752Z,1.52
2023-01-19T21:43:46.917Z,3.15
2023-01-19T21:46:19.210Z,1.85
2023-01-19T21:48:46.850Z,1.73
2023-01-19T21:51:14.752Z,2.00
2023-01-19T21:53:42.104Z,1.83
2023-01-19T21:56:10.477Z,1.85
2023-01-19T21:58:37.525Z,1.60
2023-01-19T22:01:09.816Z,1.50
2023-01-19T22:03:36.910Z,1.80
2023-01-19T22:06:08.783Z,1.70
2023-01-19T22:08:35.866Z,1.83
2023-01-19T22:11:12.925Z,1.95
2023-01-19T22:13:40.339Z,1.75
2023-01-19T22:16:16.267Z,1.80
2023-01-19T22:18:45.640Z,2.17
2023-01-19T22:21:18.453Z,1.98
2023-01-19T22:23:49.084Z,1.80
2023-01-19T22:26:16.193Z,2.00
2023-01-19T22:28:43.599Z,2.67
2023-01-19T22:31:15.527Z,1.90
2023-01-19T22:33:43.547Z,1.60
2023-01-19T22:36:16.621Z,1.65
2023-01-19T22:38:44.778Z,1.83
2023-01-19T22:41:21.000Z,1.90
2023-01-19T22:43:49.024Z,1.73
2023-01-19T22:46:21.505Z,1.95
2023-01-19T22:48:49.752Z,1.75
2023-01-19T22:51:17.698Z,1.98
2023-01-19T22:53:44.905Z,2.13
2023-01-19T22:56:15.609Z,1.70
2023-01-19T22:58:46.263Z,2.10
2023-01-19T23:01:16.827Z,2.00
2023-01-19T23:03:44.030Z,2.13
2023-01-19T23:06:13.929Z,2.10
2023-01-19T23:08:41.529Z,2.20
2023-01-19T23:11:14.615Z,1.98
2023-01-19T23:13:41.889Z,2.00
2023-01-19T23:16:09.614Z,2.45
2023-01-19T23:18:36.657Z,2.33
2023-01-19T23:21:12.769Z,2.40
2023-01-19T23:23:40.630Z,1.90
2023-01-19T23:26:10.830Z,2.03
2023-01-19T23:28:37.783Z,1.85
2023-01-19T23:31:24.785Z,1.70
2023-01-19T23:33:57.668Z,3.10
2023-01-19T23:36:27.054Z,2.10
2023-01-19T23:38:56.756Z,2.28
2023-01-19T23:41:24.816Z,1.92
2023-01-19T23:43:52.247Z,2.33
2023-01-19T23:46:20.340Z,2.22
2023-01-19T23:48:47.494Z,2.03
2023-01-19T23:51:16.098Z,2.28
2023-01-19T23:53:43.015Z,2.50
2023-01-19T23:56:17.471Z,2.65
2023-01-19T23:58:45.658Z,2.08
